createdAt,value
2024-03-05T00:00:28.210Z,7.86
2024-03-05T00:02:55.005Z,7.45
2024-03-05T00:05:21.644Z,7.96
2024-03-05T00:07:48.390Z,7.91
2024-03-05T00:10:15.141Z,8.07
2024-03-05T00:12:41.794Z,8.16
2024-03-05T00:15:08.787Z,8.63
2024-03-05T00:17:35.443Z,8.63
2024-03-05T00:20:02.260Z,8.69
2024-03-05T00:22:29.300Z,8.80
2024-03-05T00:24:56.187Z,9.20
2024-03-05T00:27:22.811Z,9.37
2024-03-05T00:29:49.653Z,9.94
2024-03-05T00:32:16.964Z,10.22
2024-03-05T00:34:43.598Z,9.87
2024-03-05T00:37:10.271Z,10.47
2024-03-05T00:39:36.924Z,10.03
2024-03-05T00:42:04.688Z,9.24
2024-03-05T00:44:31.282Z,8.97
2024-03-05T00:46:58.126Z,9.15
2024-03-05T00:49:24.935Z,9.47
2024-03-05T00:51:51.659Z,9.72
2024-03-05T00:54:18.230Z,9.37
2024-03-05T00:56:44.812Z,9.31
2024-03-05T00:59:12.530Z,8.41
2024-03-05T01:01:40.619Z,7.85
2024-03-05T01:04:08.935Z,7.80
2024-03-05T01:06:35.703Z,9.23
2024-03-05T01:09:02.414Z,9.48
2024-03-05T01:11:30.833Z,9.23
2024-03-05T01:13:57.465Z,9.14
2024-03-05T01:16:24.552Z,9.45
2024-03-05T01:18:51.166Z,9.62
2024-03-05T01:21:18.794Z,9.93
2024-03-05T01:23:45.437Z,9.80
2024-03-05T01:26:11.997Z,9.80
2024-03-05T01:28:38.686Z,9.83
2024-03-05T01:31:05.322Z,10.00
2024-03-05T01:33:31.963Z,9.83
2024-03-05T01:35:59.166Z,8.61
2024-03-05T01:38:28.343Z,7.45
2024-03-05T01:40:55.192Z,8.25
2024-03-05T01:43:22.355Z,8.16
2024-03-05T01:45:51.297Z,7.96
2024-03-05T01:48:18.378Z,7.78
2024-03-05T01:50:46.079Z,7.53
2024-03-05T01:53:16.486Z,7.19
2024-03-05T01:55:46.701Z,7.87
2024-03-05T01:58:16.721Z,8.45
2024-03-05T02:00:43.524Z,8.98
2024-03-05T02:03:12.297Z,10.17
2024-03-05T02:05:44.626Z,9.82
2024-03-05T02:08:16.117Z,9.92
2024-03-05T02:10:48.416Z,9.75
2024-03-05T02:13:15.067Z,9.89
2024-03-05T02:15:41.779Z,9.38
2024-03-05T02:18:09.042Z,9.49
2024-03-05T02:20:35.840Z,9.41
2024-03-05T02:23:03.340Z,9.81
2024-03-05T02:25:32.580Z,9.88
2024-03-05T02:28:00.882Z,9.47
2024-03-05T02:30:27.575Z,9.82
2024-03-05T02:32:54.393Z,9.40
2024-03-05T02:35:21.717Z,9.74
2024-03-05T02:37:49.048Z,10.07
2024-03-05T02:40:16.313Z,9.86
2024-03-05T02:42:43.917Z,9.68
2024-03-05T02:45:12.586Z,9.97
2024-03-05T02:47:43.655Z,9.88
2024-03-05T02:50:11.833Z,9.87
2024-03-05T02:52:42.244Z,9.82
2024-03-05T02:55:10.614Z,9.80
2024-03-05T02:57:45.245Z,9.92
2024-03-05T03:00:21.929Z,10.23
2024-03-05T03:02:51.661Z,10.19
2024-03-05T03:05:20.206Z,10.01
2024-03-05T03:07:46.859Z,10.23
2024-03-05T03:10:14.412Z,10.26
2024-03-05T03:12:41.892Z,9.72
2024-03-05T03:15:09.187Z,10.25
2024-03-05T03:17:39.075Z,10.49
2024-03-05T03:20:08.845Z,10.15
2024-03-05T03:22:38.866Z,10.62
2024-03-05T03:25:05.855Z,10.13
2024-03-05T03:27:32.517Z,10.15
2024-03-05T03:29:59.348Z,9.97
2024-03-05T03:32:26.079Z,9.55
2024-03-05T03:34:53.089Z,8.75
2024-03-05T03:37:19.845Z,8.41
2024-03-05T03:39:49.548Z,8.62
2024-03-05T03:42:16.343Z,9.64
2024-03-05T03:44:43.187Z,10.17
2024-03-05T03:47:10.080Z,10.40
2024-03-05T03:49:39.489Z,11.26
2024-03-05T03:52:06.410Z,11.47
2024-03-05T03:54:34.733Z,11.12
2024-03-05T03:57:01.347Z,11.11
2024-03-05T03:59:28.824Z,10.91
2024-03-05T04:01:56.135Z,11.26
2024-03-05T04:04:22.979Z,11.46
2024-03-05T04:06:49.657Z,10.91
2024-03-05T04:09:16.216Z,10.50
2024-03-05T04:11:43.658Z,10.82
2024-03-05T04:14:10.634Z,10.63
2024-03-05T04:16:41.755Z,10.48
2024-03-05T04:19:08.531Z,10.04
2024-03-05T04:21:46.161Z,10.10
2024-03-05T04:24:14.890Z,9.68
2024-03-05T04:26:42.756Z,9.48
2024-03-05T04:29:17.036Z,8.59
2024-03-05T04:31:50.385Z,8.90
2024-03-05T04:34:21.547Z,9.92
2024-03-05T04:36:50.952Z,9.68
2024-03-05T04:39:17.555Z,9.24
2024-03-05T04:41:47.726Z,9.61
2024-03-05T04:44:14.900Z,9.22
2024-03-05T04:46:42.261Z,9.62
2024-03-05T04:49:08.934Z,10.31
2024-03-05T04:51:36.194Z,10.06
2024-03-05T04:54:02.926Z,10.00
2024-03-05T04:56:29.479Z,9.79
2024-03-05T04:58:56.137Z,10.12
2024-03-05T05:01:22.913Z,9.78
2024-03-05T05:03:49.682Z,10.05
2024-03-05T05:06:16.546Z,9.98
2024-03-05T05:08:43.296Z,10.41
2024-03-05T05:11:10.098Z,11.42
2024-03-05T05:13:36.913Z,11.68
2024-03-05T05:16:03.769Z,11.67
2024-03-05T05:18:30.357Z,11.03
2024-03-05T05:20:57.051Z,11.78
2024-03-05T05:23:23.615Z,12.19
2024-03-05T05:25:50.256Z,11.87
2024-03-05T05:28:17.028Z,11.95
2024-03-05T05:30:44.758Z,11.63
2024-03-05T05:33:11.419Z,12.07
2024-03-05T05:35:38.664Z,11.99
2024-03-05T05:38:05.588Z,11.41
2024-03-05T05:40:32.269Z,11.13
2024-03-05T05:42:59.714Z,10.76
2024-03-05T05:45:26.510Z,12.07
2024-03-05T05:47:54.669Z,13.16
2024-03-05T05:50:23.595Z,14.23
2024-03-05T05:52:55.807Z,15.04
2024-03-05T05:55:26.926Z,16.22
2024-03-05T05:57:55.653Z,15.92
2024-03-05T06:00:33.860Z,16.62
2024-03-05T06:03:01.850Z,16.87
2024-03-05T06:05:32.144Z,16.99
2024-03-05T06:08:02.515Z,16.57
2024-03-05T06:10:30.848Z,17.07
2024-03-05T06:12:58.394Z,16.94
2024-03-05T06:15:25.268Z,16.79
2024-03-05T06:17:53.055Z,17.26
2024-03-05T06:20:19.925Z,17.49
2024-03-05T06:22:47.228Z,17.77
2024-03-05T06:25:18.028Z,18.09
2024-03-05T06:27:45.335Z,18.51
2024-03-05T06:30:18.501Z,18.68
2024-03-05T06:32:48.660Z,17.79
2024-03-05T06:35:16.503Z,17.83
2024-03-05T06:37:50.555Z,17.33
2024-03-05T06:40:21.359Z,17.13
2024-03-05T06:43:05.354Z,16.84
2024-03-05T06:45:35.514Z,16.75
2024-03-05T06:50:35.332Z,17.51
2024-03-05T06:53:21.039Z,16.63
2024-03-05T06:56:06.427Z,16.04
2024-03-05T06:58:35.192Z,16.90
2024-03-05T07:01:08.532Z,16.71
2024-03-05T07:03:36.541Z,16.49
2024-03-05T07:06:10.822Z,16.88
2024-03-05T07:08:41.670Z,16.67
2024-03-05T07:11:10.918Z,17.25
2024-03-05T07:13:40.108Z,16.45
2024-03-05T07:16:10.356Z,16.56
2024-03-05T07:18:37.698Z,16.84
2024-03-05T07:21:04.882Z,17.36
2024-03-05T07:23:31.777Z,18.49
2024-03-05T07:25:58.919Z,19.42
2024-03-05T07:28:28.212Z,19.32
2024-03-05T07:30:55.521Z,20.79
2024-03-05T07:33:23.004Z,20.72
2024-03-05T07:35:50.014Z,20.01
2024-03-05T07:38:16.657Z,19.40
2024-03-05T07:40:43.689Z,19.81
2024-03-05T07:43:10.431Z,20.03
2024-03-05T07:45:37.255Z,18.34
2024-03-05T07:48:04.379Z,18.86
2024-03-05T07:50:31.042Z,19.28
2024-03-05T07:53:00.597Z,20.29
2024-03-05T07:55:32.093Z,21.32
2024-03-05T07:58:02.708Z,23.49
2024-03-05T08:00:29.424Z,23.56
2024-03-05T08:02:56.212Z,24.18
2024-03-05T08:05:24.212Z,24.35
2024-03-05T08:07:51.555Z,25.57
2024-03-05T08:10:19.004Z,25.88
2024-03-05T08:12:48.375Z,26.69
2024-03-05T08:15:18.989Z,26.96
2024-03-05T08:17:47.292Z,26.53
2024-03-05T08:20:14.532Z,27.46
2024-03-05T08:22:42.746Z,27.61
2024-03-05T08:25:13.943Z,27.79
2024-03-05T08:27:44.664Z,27.60
2024-03-05T08:30:16.424Z,28.28
2024-03-05T08:32:43.382Z,28.57
2024-03-05T08:35:12.479Z,29.37
2024-03-05T08:37:41.836Z,29.41
2024-03-05T08:40:22.031Z,29.92
2024-03-05T08:42:50.739Z,29.73
2024-03-05T08:45:20.994Z,28.91
2024-03-05T08:47:49.381Z,28.46
2024-03-05T08:50:16.143Z,29.05
2024-03-05T08:52:43.546Z,28.20
2024-03-05T08:55:11.622Z,27.38
2024-03-05T08:57:42.468Z,26.00
2024-03-05T09:00:26.828Z,25.47
2024-03-05T09:03:02.484Z,25.95
2024-03-05T09:05:29.117Z,26.23
2024-03-05T09:07:55.884Z,26.51
2024-03-05T09:10:22.744Z,27.06
2024-03-05T09:12:49.348Z,27.40
2024-03-05T09:15:17.458Z,27.72
2024-03-05T09:17:44.356Z,28.29
2024-03-05T09:20:17.448Z,28.14
2024-03-05T09:22:46.109Z,28.17
2024-03-05T09:25:16.717Z,27.74
2024-03-05T09:27:45.917Z,28.69
2024-03-05T09:30:15.931Z,29.00
2024-03-05T09:32:44.607Z,29.65
2024-03-05T09:35:13.611Z,29.22
2024-03-05T09:37:40.463Z,29.09
2024-03-05T09:40:07.903Z,29.43
2024-03-05T09:42:38.144Z,29.50
2024-03-05T09:45:07.793Z,28.98
2024-03-05T09:47:38.572Z,29.50
2024-03-05T09:50:06.156Z,30.27
2024-03-05T09:52:34.368Z,31.48
2024-03-05T09:55:02.170Z,30.84
2024-03-05T09:57:30.411Z,31.07
2024-03-05T09:59:57.383Z,31.16
2024-03-05T10:02:26.678Z,32.07
2024-03-05T10:05:00.370Z,32.67
2024-03-05T10:07:28.271Z,32.54
2024-03-05T10:10:05.704Z,32.73
2024-03-05T10:12:32.345Z,32.86
2024-03-05T10:15:26.078Z,33.32
2024-03-05T10:17:55.869Z,34.11
2024-03-05T10:20:34.237Z,33.05
2024-03-05T10:23:04.021Z,33.62
2024-03-05T10:25:34.416Z,33.35
2024-03-05T10:28:03.079Z,32.63
2024-03-05T10:30:35.540Z,33.10
2024-03-05T10:33:08.940Z,33.72
2024-03-05T10:35:37.796Z,32.76
2024-03-05T10:38:15.209Z,31.70
2024-03-05T10:40:45.885Z,31.46
2024-03-05T10:43:17.075Z,31.94
2024-03-05T10:45:45.873Z,32.06
2024-03-05T10:48:13.589Z,30.99
2024-03-05T10:50:41.750Z,31.44
2024-03-05T10:53:09.781Z,32.21
2024-03-05T10:55:38.115Z,32.13
2024-03-05T10:58:22.809Z,31.79
2024-03-05T11:00:52.142Z,32.79
2024-03-05T11:03:35.704Z,32.66
2024-03-05T11:06:04.833Z,32.83
2024-03-05T11:08:32.288Z,33.03
2024-03-05T11:11:03.977Z,32.56
2024-03-05T11:13:33.739Z,32.04
2024-03-05T11:16:03.833Z,31.97
2024-03-05T11:18:38.510Z,32.99
2024-03-05T11:21:10.457Z,32.01
2024-03-05T11:23:41.585Z,32.09
2024-03-05T11:26:09.353Z,31.44
2024-03-05T11:28:38.150Z,30.99
2024-03-05T11:31:21.074Z,32.51
2024-03-05T11:34:03.635Z,32.30
2024-03-05T11:36:37.750Z,31.58
2024-03-05T11:39:21.208Z,31.48
2024-03-05T11:41:49.088Z,32.15
2024-03-05T11:44:36.496Z,31.96
2024-03-05T11:47:04.369Z,32.51
2024-03-05T11:49:31.388Z,31.57
2024-03-05T11:51:59.835Z,32.35
2024-03-05T11:54:26.543Z,31.66
2024-03-05T11:57:01.053Z,31.89
2024-03-05T11:59:40.754Z,32.26
2024-03-05T12:02:11.439Z,32.58
2024-03-05T12:04:39.045Z,32.94
2024-03-05T12:07:08.641Z,32.86
2024-03-05T12:09:38.532Z,33.06
2024-03-05T12:12:13.567Z,31.61
2024-03-05T12:14:54.586Z,31.78
2024-03-05T12:17:22.885Z,31.70
2024-03-05T12:20:04.696Z,32.10
2024-03-05T12:22:31.650Z,32.55
2024-03-05T12:24:58.955Z,32.62
2024-03-05T12:27:26.366Z,32.02
2024-03-05T12:29:53.471Z,32.74
2024-03-05T12:32:20.223Z,32.45
2024-03-05T12:34:48.776Z,32.03
2024-03-05T12:37:17.039Z,32.82
2024-03-05T12:39:43.864Z,33.10
2024-03-05T12:42:14.455Z,32.70
2024-03-05T12:44:41.976Z,32.66
2024-03-05T12:47:15.177Z,33.28
2024-03-05T12:49:47.643Z,32.40
2024-03-05T12:52:23.116Z,31.68
2024-03-05T12:55:00.926Z,31.84
2024-03-05T12:57:28.888Z,31.30
2024-03-05T12:59:59.393Z,30.79
2024-03-05T13:02:26.170Z,30.98
2024-03-05T13:04:55.316Z,31.25
2024-03-05T13:07:23.848Z,30.34
2024-03-05T13:09:50.805Z,30.05
2024-03-05T13:12:18.247Z,29.25
2024-03-05T13:14:44.914Z,29.61
2024-03-05T13:17:11.523Z,29.37
2024-03-05T13:19:38.200Z,28.59
2024-03-05T13:22:05.078Z,29.18
2024-03-05T13:24:35.357Z,28.91
2024-03-05T13:27:02.157Z,28.51
2024-03-05T13:29:28.779Z,28.92
2024-03-05T13:31:55.481Z,28.64
2024-03-05T13:34:23.729Z,28.03
2024-03-05T13:36:50.654Z,28.59
2024-03-05T13:39:23.070Z,28.94
2024-03-05T13:41:53.592Z,30.03
2024-03-05T13:44:24.029Z,29.43
2024-03-05T13:46:52.382Z,29.18
2024-03-05T13:49:20.975Z,29.35
2024-03-05T13:51:48.001Z,29.87
2024-03-05T13:54:14.697Z,31.17
2024-03-05T13:56:43.712Z,29.79
2024-03-05T13:59:13.239Z,29.93
2024-03-05T14:01:40.546Z,29.08
2024-03-05T14:04:12.999Z,29.32
2024-03-05T14:06:39.911Z,28.80
2024-03-05T14:09:10.157Z,27.67
2024-03-05T14:11:37.553Z,27.69
2024-03-05T14:14:04.584Z,27.42
2024-03-05T14:16:32.647Z,27.06
2024-03-05T14:18:59.989Z,26.65
2024-03-05T14:21:30.721Z,26.50
2024-03-05T14:23:58.558Z,26.30
2024-03-05T14:26:25.531Z,26.10
2024-03-05T14:28:52.343Z,25.80
2024-03-05T14:31:19.480Z,25.72
2024-03-05T14:33:46.598Z,25.20
2024-03-05T14:36:15.192Z,25.17
2024-03-05T14:38:43.287Z,25.39
2024-03-05T14:41:10.986Z,25.66
2024-03-05T14:43:37.844Z,25.92
2024-03-05T14:46:04.740Z,25.30
2024-03-05T14:48:31.443Z,25.52
2024-03-05T14:50:58.108Z,26.26
2024-03-05T14:53:24.796Z,27.00
2024-03-05T14:55:52.062Z,27.43
2024-03-05T14:58:18.978Z,27.26
2024-03-05T15:00:46.032Z,27.93
2024-03-05T15:03:13.251Z,28.23
2024-03-05T15:05:40.003Z,29.16
2024-03-05T15:08:07.384Z,28.26
2024-03-05T15:10:34.300Z,28.20
2024-03-05T15:13:00.962Z,28.87
2024-03-05T15:15:27.662Z,28.11
2024-03-05T15:17:55.491Z,29.10
2024-03-05T15:20:22.897Z,29.28
2024-03-05T15:22:50.409Z,28.93
2024-03-05T15:25:22.807Z,28.79
2024-03-05T15:28:00.578Z,28.72
2024-03-05T15:30:33.138Z,28.29
2024-03-05T15:33:01.380Z,28.72
2024-03-05T15:35:29.919Z,28.31
2024-03-05T15:37:57.662Z,27.70
2024-03-05T15:40:25.256Z,28.08
2024-03-05T15:42:56.468Z,28.09
2024-03-05T15:45:31.177Z,28.08
2024-03-05T15:47:59.468Z,28.10
2024-03-05T15:50:30.968Z,28.31
2024-03-05T15:53:00.678Z,28.23
2024-03-05T15:55:31.112Z,27.88
2024-03-05T15:58:04.685Z,28.07
2024-03-05T16:00:36.390Z,28.99
2024-03-05T16:03:07.964Z,27.57
2024-03-05T16:05:55.428Z,27.97
2024-03-05T16:08:30.934Z,27.77
2024-03-05T16:11:00.047Z,27.73
2024-03-05T16:13:30.825Z,27.49
2024-03-05T16:15:57.921Z,27.13
2024-03-05T16:18:25.475Z,26.60
2024-03-05T16:20:53.499Z,27.16
2024-03-05T16:23:20.261Z,27.66
2024-03-05T16:25:46.839Z,27.58
2024-03-05T16:28:18.074Z,27.59
2024-03-05T16:30:44.883Z,27.13
2024-03-05T16:33:11.852Z,26.91
2024-03-05T16:35:38.648Z,27.01
2024-03-05T16:38:06.840Z,27.09
2024-03-05T16:40:38.456Z,27.71
2024-03-05T16:43:07.112Z,27.06
2024-03-05T16:45:35.354Z,25.97
2024-03-05T16:48:06.365Z,25.60
2024-03-05T16:50:34.237Z,26.06
2024-03-05T16:53:07.065Z,26.42
2024-03-05T16:55:34.053Z,26.55
2024-03-05T16:58:02.165Z,25.92
2024-03-05T17:00:34.663Z,26.00
2024-03-05T17:03:07.693Z,25.23
2024-03-05T17:05:37.852Z,25.72
2024-03-05T17:08:15.279Z,25.29
2024-03-05T17:10:44.111Z,24.96
2024-03-05T17:13:18.905Z,25.55
2024-03-05T17:15:48.343Z,26.97
2024-03-05T17:18:15.136Z,25.67
2024-03-05T17:20:42.395Z,26.59
2024-03-05T17:23:14.464Z,27.17
2024-03-05T17:25:43.478Z,27.38
2024-03-05T17:28:12.080Z,27.72
2024-03-05T17:30:39.839Z,27.75
2024-03-05T17:33:10.892Z,28.09
2024-03-05T17:35:40.154Z,28.79
2024-03-05T17:38:07.828Z,27.67
2024-03-05T17:40:34.679Z,28.66
2024-03-05T17:43:02.833Z,28.89
2024-03-05T17:45:30.976Z,28.43
2024-03-05T17:47:59.610Z,28.63
2024-03-05T17:50:26.371Z,27.65
2024-03-05T17:52:53.535Z,27.27
2024-03-05T17:55:20.443Z,27.44
2024-03-05T17:57:51.741Z,27.36
2024-03-05T18:00:28.837Z,26.83
2024-03-05T18:02:59.694Z,27.17
2024-03-05T18:05:27.887Z,27.37
2024-03-05T18:07:55.536Z,25.60
2024-03-05T18:10:26.327Z,26.14
2024-03-05T18:12:53.603Z,26.87
2024-03-05T18:15:21.554Z,26.94
2024-03-05T18:17:49.867Z,26.51
2024-03-05T18:20:17.747Z,26.30
2024-03-05T18:22:45.813Z,25.28
2024-03-05T18:25:19.605Z,26.21
2024-03-05T18:27:48.756Z,26.72
2024-03-05T18:30:20.314Z,26.71
2024-03-05T18:32:48.334Z,26.49
2024-03-05T18:35:17.708Z,27.04
2024-03-05T18:37:45.372Z,27.02
2024-03-05T18:40:15.550Z,27.17
2024-03-05T18:42:43.100Z,27.42
2024-03-05T18:45:16.487Z,25.65
2024-03-05T18:47:54.444Z,23.78
2024-03-05T18:50:29.191Z,23.23
2024-03-05T18:52:58.102Z,24.42
2024-03-05T18:55:29.787Z,25.68
2024-03-05T18:57:57.317Z,24.80
2024-03-05T19:00:24.673Z,26.03
2024-03-05T19:02:51.919Z,25.68
2024-03-05T19:05:19.976Z,24.91
2024-03-05T19:07:48.017Z,25.49
2024-03-05T19:10:17.188Z,25.66
2024-03-05T19:12:47.116Z,24.15
2024-03-05T19:15:14.313Z,23.84
2024-03-05T19:17:44.446Z,22.99
2024-03-05T19:20:14.601Z,22.94
2024-03-05T19:22:42.112Z,23.20
2024-03-05T19:25:11.950Z,22.92
2024-03-05T19:27:42.842Z,24.08
2024-03-05T19:30:18.156Z,25.16
2024-03-05T19:32:45.788Z,25.48
2024-03-05T19:35:16.950Z,25.56
2024-03-05T19:37:45.678Z,24.55
2024-03-05T19:40:20.577Z,23.42
2024-03-05T19:42:54.779Z,23.58
2024-03-05T19:45:21.891Z,23.34
2024-03-05T19:47:52.285Z,23.81
2024-03-05T19:50:19.828Z,22.85
2024-03-05T19:52:49.359Z,25.15
2024-03-05T19:55:16.453Z,24.70
2024-03-05T19:57:44.274Z,24.11
2024-03-05T20:00:19.674Z,23.90
2024-03-05T20:02:48.003Z,24.50
2024-03-05T20:05:18.411Z,25.82
2024-03-05T20:07:45.589Z,25.91
2024-03-05T20:10:12.603Z,25.28
2024-03-05T20:12:40.254Z,24.68
2024-03-05T20:15:09.631Z,22.20
2024-03-05T20:17:39.718Z,22.36
2024-03-05T20:20:09.949Z,22.33
2024-03-05T20:22:39.724Z,22.20
2024-03-05T20:25:07.768Z,22.10
2024-03-05T20:27:34.744Z,22.17
2024-03-05T20:30:02.296Z,22.29
2024-03-05T20:32:31.789Z,22.49
2024-03-05T20:34:58.753Z,22.68
2024-03-05T20:37:25.447Z,22.54
2024-03-05T20:39:55.673Z,23.28
2024-03-05T20:42:22.366Z,24.60
2024-03-05T20:44:48.979Z,24.91
2024-03-05T20:47:15.578Z,24.07
2024-03-05T20:49:43.452Z,22.96
2024-03-05T20:52:10.194Z,23.28
2024-03-05T20:54:36.835Z,23.40
2024-03-05T20:57:03.449Z,22.91
2024-03-05T20:59:33.278Z,22.66
2024-03-05T21:02:03.106Z,23.65
2024-03-05T21:04:36.494Z,23.33
2024-03-05T21:07:05.890Z,22.58
2024-03-05T21:09:33.030Z,24.22
2024-03-05T21:11:59.722Z,42.13
2024-03-05T21:14:26.643Z,59.07
2024-03-05T21:16:53.994Z,30.83
2024-03-05T21:19:22.917Z,28.04
2024-03-05T21:21:50.355Z,24.33
2024-03-05T21:24:17.028Z,26.72
2024-03-05T21:26:54.657Z,27.10
2024-03-05T21:29:30.323Z,22.51
2024-03-05T21:31:59.292Z,20.58
2024-03-05T21:34:25.878Z,20.02
2024-03-05T21:36:53.461Z,19.43
2024-03-05T21:39:20.161Z,19.26
2024-03-05T21:41:47.648Z,19.28
2024-03-05T21:44:22.831Z,18.96
2024-03-05T21:46:56.340Z,19.29
2024-03-05T21:49:23.651Z,20.06
2024-03-05T21:51:51.293Z,20.85
2024-03-05T21:54:18.516Z,22.22
2024-03-05T21:56:45.079Z,25.23
2024-03-05T21:59:11.712Z,25.53
2024-03-05T22:01:38.367Z,25.07
2024-03-05T22:04:05.112Z,24.26
2024-03-05T22:06:33.273Z,21.75
2024-03-05T22:09:09.790Z,20.89
2024-03-05T22:11:41.136Z,20.47
2024-03-05T22:14:12.698Z,22.09
2024-03-05T22:16:41.149Z,22.72
2024-03-05T22:19:11.347Z,20.69
2024-03-05T22:21:38.729Z,19.69
2024-03-05T22:24:07.598Z,19.99
2024-03-05T22:26:34.878Z,20.56
2024-03-05T22:29:02.064Z,21.01
2024-03-05T22:31:30.943Z,21.36
2024-03-05T22:33:57.816Z,21.66
2024-03-05T22:36:25.162Z,21.90
2024-03-05T22:38:51.874Z,22.63
2024-03-05T22:41:18.832Z,22.89
2024-03-05T22:43:46.056Z,21.52
2024-03-05T22:46:12.734Z,21.23
2024-03-05T22:48:39.931Z,22.92
2024-03-05T22:51:09.950Z,27.22
2024-03-05T22:53:38.570Z,31.34
2024-03-05T22:56:07.859Z,31.69
2024-03-05T22:58:36.176Z,32.66
2024-03-05T23:01:05.794Z,30.63
2024-03-05T23:03:33.546Z,30.31
2024-03-05T23:06:03.193Z,30.99
2024-03-05T23:08:32.392Z,30.02
2024-03-05T23:10:59.138Z,30.92
2024-03-05T23:13:25.773Z,28.83
2024-03-05T23:15:52.421Z,29.68
2024-03-05T23:18:19.050Z,29.25
2024-03-05T23:20:45.659Z,29.18
2024-03-05T23:23:12.737Z,30.05
2024-03-05T23:25:39.883Z,33.70
2024-03-05T23:28:07.228Z,34.18
2024-03-05T23:30:34.054Z,33.37
2024-03-05T23:33:00.739Z,32.92
2024-03-05T23:35:27.445Z,33.63
2024-03-05T23:37:54.960Z,34.67
2024-03-05T23:40:21.536Z,35.98
2024-03-05T23:42:48.149Z,34.71
2024-03-05T23:45:14.753Z,33.52
2024-03-05T23:47:41.925Z,34.78
2024-03-05T23:50:10.365Z,35.66
2024-03-05T23:52:37.844Z,35.00
2024-03-05T23:55:07.948Z,34.48
2024-03-05T23:57:34.641Z,35.48
